sensor_id;sensor_type;location;lat;lon;timestamp;pressure;altitude;pressure_sealevel;temperature;humidity
36598;BME280;22607;49.550;11.940;2023-05-16T00:01:47;96415.38;;;12.17;100.00
36598;BME280;22607;49.550;11.940;2023-05-16T00:04:14;96410.09;;;12.17;100.00
36598;BME280;22607;49.550;11.940;2023-05-16T00:06:40;96408.84;;;11.85;100.00
36598;BME280;22607;49.550;11.940;2023-05-16T00:09:07;96408.31;;;11.96;100.00
36598;BME280;22607;49.550;11.940;2023-05-16T00:11:34;96412.69;;;12.11;100.00
36598;BME280;22607;49.550;11.940;2023-05-16T00:14:01;96404.84;;;12.17;100.00
36598;BME280;22607;49.550;11.940;2023-05-16T00:16:28;96412.47;;;12.05;100.00
36598;BME280;22607;49.550;11.940;2023-05-16T00:18:56;96408.13;;;11.98;100.00
36598;BME280;22607;49.550;11.940;2023-05-16T00:21:26;96412.03;;;11.80;100.00
36598;BME280;22607;49.550;11.940;2023-05-16T00:23:53;96421.19;;;12.06;100.00
36598;BME280;22607;49.550;11.940;2023-05-16T00:26:19;96415.97;;;11.91;100.00
36598;BME280;22607;49.550;11.940;2023-05-16T00:28:47;96412.97;;;11.94;100.00
36598;BME280;22607;49.550;11.940;2023-05-16T00:31:13;96408.31;;;11.96;100.00
36598;BME280;22607;49.550;11.940;2023-05-16T00:33:39;96421.19;;;11.84;100.00
36598;BME280;22607;49.550;11.940;2023-05-16T00:36:06;96421.25;;;11.69;100.00
36598;BME280;22607;49.550;11.940;2023-05-16T00:38:33;96428.41;;;11.53;100.00
36598;BME280;22607;49.550;11.940;2023-05-16T00:41:00;96430.44;;;11.51;100.00
36598;BME280;22607;49.550;11.940;2023-05-16T00:43:27;96434.91;;;11.36;100.00
36598;BME280;22607;49.550;11.940;2023-05-16T00:45:54;96429.91;;;11.41;100.00
36598;BME280;22607;49.550;11.940;2023-05-16T00:48:20;96430.66;;;11.35;100.00
36598;BME280;22607;49.550;11.940;2023-05-16T00:50:47;96431.88;;;11.17;100.00
36598;BME280;22607;49.550;11.940;2023-05-16T00:53:14;96426.53;;;11.25;100.00
36598;BME280;22607;49.550;11.940;2023-05-16T00:55:42;96431.66;;;11.34;100.00
36598;BME280;22607;49.550;11.940;2023-05-16T00:58:10;96424.78;;;11.33;100.00
36598;BME280;22607;49.550;11.940;2023-05-16T01:00:37;96419.25;;;11.27;100.00
36598;BME280;22607;49.550;11.940;2023-05-16T01:03:04;96416.97;;;11.02;100.00
36598;BME280;22607;49.550;11.940;2023-05-16T01:05:32;96420.50;;;11.10;100.00
36598;BME280;22607;49.550;11.940;2023-05-16T01:07:58;96417.81;;;11.03;100.00
36598;BME280;22607;49.550;11.940;2023-05-16T01:10:31;96418.72;;;10.95;100.00
36598;BME280;22607;49.550;11.940;2023-05-16T01:13:24;96412.81;;;10.93;100.00
36598;BME280;22607;49.550;11.940;2023-05-16T01:16:04;96405.72;;;11.09;100.00
36598;BME280;22607;49.550;11.940;2023-05-16T01:18:41;96413.50;;;11.17;100.00
36598;BME280;22607;49.550;11.940;2023-05-16T01:24:28;96407.13;;;10.89;100.00
36598;BME280;22607;49.550;11.940;2023-05-16T01:26:58;96417.56;;;10.83;100.00
36598;BME280;22607;49.550;11.940;2023-05-16T01:29:25;96414.88;;;10.76;100.00
36598;BME280;22607;49.550;11.940;2023-05-16T01:31:52;96410.44;;;10.61;100.00
36598;BME280;22607;49.550;11.940;2023-05-16T01:34:18;96406.38;;;10.59;100.00
36598;BME280;22607;49.550;11.940;2023-05-16T01:39:41;96413.16;;;10.53;100.00
36598;BME280;22607;49.550;11.940;2023-05-16T01:42:14;96410.63;;;10.75;100.00
36598;BME280;22607;49.550;11.940;2023-05-16T01:44:44;96400.47;;;10.57;100.00
36598;BME280;22607;49.550;11.940;2023-05-16T01:47:13;96413.50;;;10.50;100.00
36598;BME280;22607;49.550;11.940;2023-05-16T01:52:15;96411.25;;;10.62;100.00
36598;BME280;22607;49.550;11.940;2023-05-16T01:54:46;96418.69;;;10.58;100.00
36598;BME280;22607;49.550;11.940;2023-05-16T01:57:14;96424.09;;;10.42;100.00
36598;BME280;22607;49.550;11.940;2023-05-16T01:59:41;96425.97;;;10.33;100.00
36598;BME280;22607;49.550;11.940;2023-05-16T02:02:09;96429.50;;;10.10;100.00
36598;BME280;22607;49.550;11.940;2023-05-16T02:04:36;96431.25;;;9.79;100.00
36598;BME280;22607;49.550;11.940;2023-05-16T02:07:03;96428.53;;;10.11;100.00
36598;BME280;22607;49.550;11.940;2023-05-16T02:09:29;96443.09;;;10.29;100.00
36598;BME280;22607;49.550;11.940;2023-05-16T02:11:56;96451.59;;;10.31;100.00
36598;BME280;22607;49.550;11.940;2023-05-16T02:14:23;96443.34;;;10.34;100.00
36598;BME280;22607;49.550;11.940;2023-05-16T02:16:51;96451.97;;;10.28;100.00
36598;BME280;22607;49.550;11.940;2023-05-16T02:19:17;96437.97;;;9.97;100.00
36598;BME280;22607;49.550;11.940;2023-05-16T02:21:44;96449.38;;;9.89;100.00
36598;BME280;22607;49.550;11.940;2023-05-16T02:24:11;96439.28;;;10.16;100.00
36598;BME280;22607;49.550;11.940;2023-05-16T02:26:37;96437.38;;;10.25;100.00
36598;BME280;22607;49.550;11.940;2023-05-16T02:29:04;96428.88;;;10.08;100.00
36598;BME280;22607;49.550;11.940;2023-05-16T02:31:32;96433.72;;;9.96;100.00
36598;BME280;22607;49.550;11.940;2023-05-16T02:33:59;96429.28;;;9.96;100.00
36598;BME280;22607;49.550;11.940;2023-05-16T02:36:26;96421.31;;;9.90;100.00
36598;BME280;22607;49.550;11.940;2023-05-16T02:38:53;96421.44;;;10.11;100.00
36598;BME280;22607;49.550;11.940;2023-05-16T02:41:19;96427.03;;;10.08;100.00
36598;BME280;22607;49.550;11.940;2023-05-16T02:43:47;96430.50;;;10.09;100.00
36598;BME280;22607;49.550;11.940;2023-05-16T02:46:25;96429.66;;;10.08;100.00
36598;BME280;22607;49.550;11.940;2023-05-16T02:48:53;96434.19;;;10.00;100.00
36598;BME280;22607;49.550;11.940;2023-05-16T02:51:20;96436.88;;;9.91;100.00
36598;BME280;22607;49.550;11.940;2023-05-16T02:53:48;96438.91;;;10.04;100.00
36598;BME280;22607;49.550;11.940;2023-05-16T02:56:14;96437.75;;;10.07;100.00
36598;BME280;22607;49.550;11.940;2023-05-16T02:58:42;96434.53;;;9.96;100.00
36598;BME280;22607;49.550;11.940;2023-05-16T03:01:08;96430.91;;;9.82;100.00
36598;BME280;22607;49.550;11.940;2023-05-16T03:03:36;96439.66;;;9.75;100.00
36598;BME280;22607;49.550;11.940;2023-05-16T03:06:03;96439.59;;;9.83;100.00
36598;BME280;22607;49.550;11.940;2023-05-16T03:08:29;96446.75;;;9.89;100.00
36598;BME280;22607;49.550;11.940;2023-05-16T03:10:56;96464.78;;;10.07;100.00
36598;BME280;22607;49.550;11.940;2023-05-16T03:13:22;96449.03;;;9.92;100.00
36598;BME280;22607;49.550;11.940;2023-05-16T03:15:49;96458.25;;;9.88;100.00
36598;BME280;22607;49.550;11.940;2023-05-16T03:18:16;96462.03;;;9.85;100.00
36598;BME280;22607;49.550;11.940;2023-05-16T03:20:42;96454.63;;;9.89;100.00
36598;BME280;22607;49.550;11.940;2023-05-16T03:23:09;96460.31;;;9.93;100.00
36598;BME280;22607;49.550;11.940;2023-05-16T03:25:36;96446.47;;;9.84;100.00
36598;BME280;22607;49.550;11.940;2023-05-16T03:28:04;96447.34;;;9.76;100.00
36598;BME280;22607;49.550;11.940;2023-05-16T03:30:31;96456.69;;;9.79;100.00
36598;BME280;22607;49.550;11.940;2023-05-16T03:32:57;96445.41;;;9.70;100.00
36598;BME280;22607;49.550;11.940;2023-05-16T03:35:24;96454.97;;;9.86;100.00
36598;BME280;22607;49.550;11.940;2023-05-16T03:37:51;96452.94;;;9.73;100.00
36598;BME280;22607;49.550;11.940;2023-05-16T03:40:18;96448.88;;;9.70;100.00
36598;BME280;22607;49.550;11.940;2023-05-16T03:42:44;96460.34;;;9.69;100.00
36598;BME280;22607;49.550;11.940;2023-05-16T03:45:11;96463.81;;;9.62;100.00
36598;BME280;22607;49.550;11.940;2023-05-16T03:47:38;96460.34;;;9.46;100.00
36598;BME280;22607;49.550;11.940;2023-05-16T03:50:06;96453.69;;;9.35;100.00
36598;BME280;22607;49.550;11.940;2023-05-16T03:52:33;96466.75;;;9.43;100.00
36598;BME280;22607;49.550;11.940;2023-05-16T03:54:59;96453.94;;;9.49;100.00
36598;BME280;22607;49.550;11.940;2023-05-16T03:57:30;96452.31;;;9.48;100.00
36598;BME280;22607;49.550;11.940;2023-05-16T03:59:57;96451.25;;;9.57;100.00
36598;BME280;22607;49.550;11.940;2023-05-16T04:02:23;96465.09;;;9.66;100.00
36598;BME280;22607;49.550;11.940;2023-05-16T04:04:50;96467.28;;;9.62;100.00
36598;BME280;22607;49.550;11.940;2023-05-16T04:07:16;96466.34;;;9.55;100.00
36598;BME280;22607;49.550;11.940;2023-05-16T04:09:43;96483.44;;;9.51;100.00
36598;BME280;22607;49.550;11.940;2023-05-16T04:12:09;96476.91;;;9.47;100.00
36598;BME280;22607;49.550;11.940;2023-05-16T04:14:36;96490.34;;;9.43;100.00
36598;BME280;22607;49.550;11.940;2023-05-16T04:17:03;96494.19;;;9.56;100.00
36598;BME280;22607;49.550;11.940;2023-05-16T04:19:30;96481.88;;;9.33;100.00
36598;BME280;22607;49.550;11.940;2023-05-16T04:21:57;96484.38;;;9.50;100.00
36598;BME280;22607;49.550;11.940;2023-05-16T04:24:23;96491.88;;;9.61;100.00
36598;BME280;22607;49.550;11.940;2023-05-16T04:26:51;96490.03;;;9.62;100.00
36598;BME280;22607;49.550;11.940;2023-05-16T04:29:18;96485.47;;;9.64;100.00
36598;BME280;22607;49.550;11.940;2023-05-16T04:31:44;96485.22;;;9.50;100.00
36598;BME280;22607;49.550;11.940;2023-05-16T04:34:11;96485.84;;;9.52;100.00
36598;BME280;22607;49.550;11.940;2023-05-16T04:36:38;96479.09;;;9.58;100.00
36598;BME280;22607;49.550;11.940;2023-05-16T04:39:05;96485.91;;;9.67;100.00
36598;BME280;22607;49.550;11.940;2023-05-16T04:41:32;96480.28;;;9.79;100.00
36598;BME280;22607;49.550;11.940;2023-05-16T04:44:01;96471.94;;;10.14;100.00
36598;BME280;22607;49.550;11.940;2023-05-16T04:46:29;96473.50;;;10.38;100.00
36598;BME280;22607;49.550;11.940;2023-05-16T04:48:56;96474.25;;;10.62;100.00
36598;BME280;22607;49.550;11.940;2023-05-16T04:51:23;96474.09;;;10.79;100.00
36598;BME280;22607;49.550;11.940;2023-05-16T04:53:49;96480.81;;;11.18;100.00
36598;BME280;22607;49.550;11.940;2023-05-16T04:56:16;96483.75;;;11.45;100.00
36598;BME280;22607;49.550;11.940;2023-05-16T04:58:43;96472.44;;;11.45;100.00
36598;BME280;22607;49.550;11.940;2023-05-16T05:01:09;96472.19;;;11.61;100.00
36598;BME280;22607;49.550;11.940;2023-05-16T05:03:36;96478.13;;;11.92;100.00
36598;BME280;22607;49.550;11.940;2023-05-16T05:06:03;96472.72;;;12.22;100.00
36598;BME280;22607;49.550;11.940;2023-05-16T05:08:29;96476.47;;;12.41;100.00
36598;BME280;22607;49.550;11.940;2023-05-16T05:10:56;96476.66;;;12.68;100.00
36598;BME280;22607;49.550;11.940;2023-05-16T05:13:22;96475.38;;;12.57;100.00
36598;BME280;22607;49.550;11.940;2023-05-16T05:15:49;96483.47;;;12.56;100.00
36598;BME280;22607;49.550;11.940;2023-05-16T05:18:17;96479.41;;;12.53;100.00
36598;BME280;22607;49.550;11.940;2023-05-16T05:20:45;96468.03;;;12.46;100.00
36598;BME280;22607;49.550;11.940;2023-05-16T05:23:11;96478.63;;;12.59;100.00
36598;BME280;22607;49.550;11.940;2023-05-16T05:25:38;96472.13;;;12.55;100.00
36598;BME280;22607;49.550;11.940;2023-05-16T05:28:05;96472.28;;;12.47;100.00
36598;BME280;22607;49.550;11.940;2023-05-16T05:30:31;96486.66;;;12.44;100.00
36598;BME280;22607;49.550;11.940;2023-05-16T05:32:58;96479.16;;;12.48;100.00
36598;BME280;22607;49.550;11.940;2023-05-16T05:35:25;96489.19;;;12.59;100.00
36598;BME280;22607;49.550;11.940;2023-05-16T05:37:52;96487.47;;;12.80;100.00
36598;BME280;22607;49.550;11.940;2023-05-16T05:40:19;96493.19;;;12.91;100.00
36598;BME280;22607;49.550;11.940;2023-05-16T05:42:45;96479.41;;;12.89;100.00
36598;BME280;22607;49.550;11.940;2023-05-16T05:45:14;96496.28;;;13.01;100.00
36598;BME280;22607;49.550;11.940;2023-05-16T05:47:41;96498.91;;;13.50;100.00
36598;BME280;22607;49.550;11.940;2023-05-16T05:50:08;96490.06;;;13.98;100.00
36598;BME280;22607;49.550;11.940;2023-05-16T05:52:37;96487.19;;;14.47;100.00
36598;BME280;22607;49.550;11.940;2023-05-16T05:55:04;96476.56;;;14.81;99.28
36598;BME280;22607;49.550;11.940;2023-05-16T05:57:31;96477.41;;;15.34;95.99
36598;BME280;22607;49.550;11.940;2023-05-16T06:00:00;96481.56;;;15.55;86.99
36598;BME280;22607;49.550;11.940;2023-05-16T06:02:27;96477.31;;;15.47;86.62
36598;BME280;22607;49.550;11.940;2023-05-16T06:04:54;96478.59;;;15.70;85.81
36598;BME280;22607;49.550;11.940;2023-05-16T06:07:21;96485.34;;;15.98;79.25
36598;BME280;22607;49.550;11.940;2023-05-16T06:09:47;96484.41;;;16.18;81.89
36598;BME280;22607;49.550;11.940;2023-05-16T06:12:14;96483.81;;;16.16;85.20
36598;BME280;22607;49.550;11.940;2023-05-16T06:14:41;96473.78;;;16.44;80.35
36598;BME280;22607;49.550;11.940;2023-05-16T06:17:07;96475.84;;;16.16;78.34
36598;BME280;22607;49.550;11.940;2023-05-16T06:19:34;96470.19;;;16.12;79.11
36598;BME280;22607;49.550;11.940;2023-05-16T06:22:00;96471.34;;;15.91;76.21
36598;BME280;22607;49.550;11.940;2023-05-16T06:24:27;96475.16;;;16.27;75.68
36598;BME280;22607;49.550;11.940;2023-05-16T06:26:55;96463.91;;;16.32;73.97
36598;BME280;22607;49.550;11.940;2023-05-16T06:29:21;96477.09;;;16.13;74.60
36598;BME280;22607;49.550;11.940;2023-05-16T06:31:48;96477.06;;;15.88;75.58
36598;BME280;22607;49.550;11.940;2023-05-16T06:34:15;96483.00;;;15.51;74.85
36598;BME280;22607;49.550;11.940;2023-05-16T06:36:41;96493.41;;;15.78;73.04
36598;BME280;22607;49.550;11.940;2023-05-16T06:39:09;96482.53;;;15.61;78.20
36598;BME280;22607;49.550;11.940;2023-05-16T06:41:36;96487.81;;;15.61;77.22
36598;BME280;22607;49.550;11.940;2023-05-16T06:44:02;96488.50;;;15.49;78.58
36598;BME280;22607;49.550;11.940;2023-05-16T06:46:30;96484.63;;;15.84;80.42
36598;BME280;22607;49.550;11.940;2023-05-16T06:48:57;96484.50;;;16.05;74.88
36598;BME280;22607;49.550;11.940;2023-05-16T06:51:23;96487.94;;;15.73;73.20
36598;BME280;22607;49.550;11.940;2023-05-16T06:53:50;96487.13;;;15.40;79.33
36598;BME280;22607;49.550;11.940;2023-05-16T06:56:16;96491.56;;;15.46;77.09
36598;BME280;22607;49.550;11.940;2023-05-16T06:58:43;96488.25;;;15.19;81.06
36598;BME280;22607;49.550;11.940;2023-05-16T07:01:09;96484.31;;;15.35;78.23
36598;BME280;22607;49.550;11.940;2023-05-16T07:03:41;96484.06;;;15.43;76.98
36598;BME280;22607;49.550;11.940;2023-05-16T07:06:08;96475.03;;;15.90;80.61
36598;BME280;22607;49.550;11.940;2023-05-16T07:08:34;96488.44;;;15.63;74.47
36598;BME280;22607;49.550;11.940;2023-05-16T07:11:02;96478.63;;;15.64;75.44
36598;BME280;22607;49.550;11.940;2023-05-16T07:13:28;96488.34;;;15.44;80.18
36598;BME280;22607;49.550;11.940;2023-05-16T07:15:55;96480.91;;;15.92;78.81
36598;BME280;22607;49.550;11.940;2023-05-16T07:18:21;96484.34;;;15.99;73.88
36598;BME280;22607;49.550;11.940;2023-05-16T07:20:49;96488.72;;;15.80;76.30
36598;BME280;22607;49.550;11.940;2023-05-16T07:23:16;96481.41;;;16.08;74.22
36598;BME280;22607;49.550;11.940;2023-05-16T07:25:42;96485.63;;;16.41;73.47
36598;BME280;22607;49.550;11.940;2023-05-16T07:28:09;96483.75;;;16.67;74.74
36598;BME280;22607;49.550;11.940;2023-05-16T07:30:37;96477.44;;;17.05;72.96
36598;BME280;22607;49.550;11.940;2023-05-16T07:33:03;96481.88;;;17.12;72.30
36598;BME280;22607;49.550;11.940;2023-05-16T07:35:30;96473.41;;;16.59;72.58
36598;BME280;22607;49.550;11.940;2023-05-16T07:37:56;96475.84;;;16.60;71.60
36598;BME280;22607;49.550;11.940;2023-05-16T07:40:23;96481.09;;;16.67;71.57
36598;BME280;22607;49.550;11.940;2023-05-16T07:42:53;96479.47;;;16.85;70.14
36598;BME280;22607;49.550;11.940;2023-05-16T07:45:20;96476.38;;;16.88;68.34
36598;BME280;22607;49.550;11.940;2023-05-16T07:47:47;96481.53;;;16.83;70.71
36598;BME280;22607;49.550;11.940;2023-05-16T07:50:14;96488.22;;;16.66;70.75
36598;BME280;22607;49.550;11.940;2023-05-16T07:52:40;96489.09;;;16.42;72.78
36598;BME280;22607;49.550;11.940;2023-05-16T07:55:07;96504.78;;;16.43;73.55
36598;BME280;22607;49.550;11.940;2023-05-16T07:57:34;96503.34;;;16.66;70.45
36598;BME280;22607;49.550;11.940;2023-05-16T08:00:02;96499.22;;;16.89;71.38
36598;BME280;22607;49.550;11.940;2023-05-16T08:02:30;96499.09;;;17.02;70.14
36598;BME280;22607;49.550;11.940;2023-05-16T08:04:57;96502.78;;;17.20;69.81
36598;BME280;22607;49.550;11.940;2023-05-16T08:07:24;96510.03;;;17.43;69.15
36598;BME280;22607;49.550;11.940;2023-05-16T08:09:51;96511.75;;;17.38;66.62
36598;BME280;22607;49.550;11.940;2023-05-16T08:12:17;96512.09;;;17.41;67.33
36598;BME280;22607;49.550;11.940;2023-05-16T08:14:44;96512.50;;;17.26;67.37
36598;BME280;22607;49.550;11.940;2023-05-16T08:17:10;96517.22;;;17.24;66.55
36598;BME280;22607;49.550;11.940;2023-05-16T08:19:38;96517.69;;;17.21;67.20
36598;BME280;22607;49.550;11.940;2023-05-16T08:22:06;96498.06;;;17.22;66.21
36598;BME280;22607;49.550;11.940;2023-05-16T08:24:33;96492.22;;;17.32;66.82
36598;BME280;22607;49.550;11.940;2023-05-16T08:27:00;96490.28;;;17.70;65.60
36598;BME280;22607;49.550;11.940;2023-05-16T08:29:26;96502.75;;;17.69;64.47
36598;BME280;22607;49.550;11.940;2023-05-16T08:31:53;96511.66;;;17.75;63.42
36598;BME280;22607;49.550;11.940;2023-05-16T08:34:21;96503.47;;;17.77;63.20
36598;BME280;22607;49.550;11.940;2023-05-16T08:36:47;96509.13;;;17.80;64.09
36598;BME280;22607;49.550;11.940;2023-05-16T08:39:14;96501.13;;;17.68;65.31
36598;BME280;22607;49.550;11.940;2023-05-16T08:41:41;96500.59;;;17.78;63.63
36598;BME280;22607;49.550;11.940;2023-05-16T08:44:07;96492.38;;;17.68;64.80
36598;BME280;22607;49.550;11.940;2023-05-16T08:46:37;96507.41;;;18.17;64.91
36598;BME280;22607;49.550;11.940;2023-05-16T08:49:07;96485.91;;;18.30;62.27
36598;BME280;22607;49.550;11.940;2023-05-16T08:51:34;96500.59;;;18.21;61.81
36598;BME280;22607;49.550;11.940;2023-05-16T08:54:05;96496.69;;;17.93;59.78
36598;BME280;22607;49.550;11.940;2023-05-16T08:56:35;96510.28;;;18.15;60.41
36598;BME280;22607;49.550;11.940;2023-05-16T08:59:03;96511.09;;;17.73;60.12
36598;BME280;22607;49.550;11.940;2023-05-16T09:01:30;96513.72;;;18.04;59.64
36598;BME280;22607;49.550;11.940;2023-05-16T09:03:58;96515.38;;;18.17;57.75
36598;BME280;22607;49.550;11.940;2023-05-16T09:06:26;96518.88;;;18.53;57.01
36598;BME280;22607;49.550;11.940;2023-05-16T09:08:53;96518.06;;;18.53;57.05
36598;BME280;22607;49.550;11.940;2023-05-16T09:11:20;96512.50;;;18.78;54.96
36598;BME280;22607;49.550;11.940;2023-05-16T09:13:48;96523.59;;;18.99;57.13
36598;BME280;22607;49.550;11.940;2023-05-16T09:16:16;96527.28;;;18.74;56.61
36598;BME280;22607;49.550;11.940;2023-05-16T09:18:54;96521.75;;;18.87;56.42
36598;BME280;22607;49.550;11.940;2023-05-16T09:21:27;96520.34;;;18.97;55.36
36598;BME280;22607;49.550;11.940;2023-05-16T09:23:54;96538.31;;;18.78;55.04
36598;BME280;22607;49.550;11.940;2023-05-16T09:26:21;96527.06;;;18.87;55.10
36598;BME280;22607;49.550;11.940;2023-05-16T09:28:52;96529.50;;;18.89;54.76
36598;BME280;22607;49.550;11.940;2023-05-16T09:31:26;96518.56;;;19.26;54.96
36598;BME280;22607;49.550;11.940;2023-05-16T09:33:55;96518.50;;;19.50;53.83
36598;BME280;22607;49.550;11.940;2023-05-16T09:36:22;96505.25;;;19.26;53.96
36598;BME280;22607;49.550;11.940;2023-05-16T09:38:51;96512.31;;;19.62;54.15
36598;BME280;22607;49.550;11.940;2023-05-16T09:41:20;96504.97;;;19.69;53.63
36598;BME280;22607;49.550;11.940;2023-05-16T09:43:47;96502.09;;;19.71;52.79
36598;BME280;22607;49.550;11.940;2023-05-16T09:46:14;96485.38;;;20.22;53.41
36598;BME280;22607;49.550;11.940;2023-05-16T09:48:44;96486.16;;;20.39;53.16
36598;BME280;22607;49.550;11.940;2023-05-16T09:51:12;96489.72;;;20.28;51.72
36598;BME280;22607;49.550;11.940;2023-05-16T09:53:39;96494.03;;;19.83;52.00
36598;BME280;22607;49.550;11.940;2023-05-16T09:56:09;96489.88;;;20.04;52.06
36598;BME280;22607;49.550;11.940;2023-05-16T09:58:38;96483.59;;;20.10;50.82
36598;BME280;22607;49.550;11.940;2023-05-16T10:01:06;96495.88;;;19.82;53.62
36598;BME280;22607;49.550;11.940;2023-05-16T10:03:34;96485.69;;;19.62;52.94
36598;BME280;22607;49.550;11.940;2023-05-16T10:06:02;96481.44;;;19.49;52.45
36598;BME280;22607;49.550;11.940;2023-05-16T10:08:30;96496.88;;;19.47;53.63
36598;BME280;22607;49.550;11.940;2023-05-16T10:11:03;96493.81;;;19.55;53.64
36598;BME280;22607;49.550;11.940;2023-05-16T10:13:32;96488.59;;;19.60;53.90
36598;BME280;22607;49.550;11.940;2023-05-16T10:16:05;96485.34;;;19.29;54.78
36598;BME280;22607;49.550;11.940;2023-05-16T10:18:34;96468.13;;;19.49;55.13
36598;BME280;22607;49.550;11.940;2023-05-16T10:21:06;96476.44;;;19.23;55.29
36598;BME280;22607;49.550;11.940;2023-05-16T10:23:40;96480.88;;;19.47;54.45
36598;BME280;22607;49.550;11.940;2023-05-16T10:26:07;96475.03;;;19.33;53.79
36598;BME280;22607;49.550;11.940;2023-05-16T10:28:35;96486.81;;;19.37;53.51
36598;BME280;22607;49.550;11.940;2023-05-16T10:31:02;96486.00;;;19.65;54.56
36598;BME280;22607;49.550;11.940;2023-05-16T10:33:28;96473.19;;;20.09;53.77
36598;BME280;22607;49.550;11.940;2023-05-16T10:35:55;96474.78;;;20.10;52.08
36598;BME280;22607;49.550;11.940;2023-05-16T10:38:22;96478.69;;;20.58;52.03
36598;BME280;22607;49.550;11.940;2023-05-16T10:40:50;96482.91;;;21.16;51.40
36598;BME280;22607;49.550;11.940;2023-05-16T10:43:24;96481.81;;;21.12;49.60
36598;BME280;22607;49.550;11.940;2023-05-16T10:46:09;96465.78;;;21.12;49.06
36598;BME280;22607;49.550;11.940;2023-05-16T10:48:38;96463.00;;;21.51;48.81
36598;BME280;22607;49.550;11.940;2023-05-16T10:51:37;96465.53;;;21.91;47.32
36598;BME280;22607;49.550;11.940;2023-05-16T10:54:07;96467.94;;;21.65;45.76
36598;BME280;22607;49.550;11.940;2023-05-16T10:56:34;96454.31;;;20.89;47.36
36598;BME280;22607;49.550;11.940;2023-05-16T10:59:01;96457.38;;;21.48;48.67
36598;BME280;22607;49.550;11.940;2023-05-16T11:01:29;96454.75;;;21.53;47.97
36598;BME280;22607;49.550;11.940;2023-05-16T11:11:43;96466.75;;;19.92;51.28
36598;BME280;22607;49.550;11.940;2023-05-16T11:19:42;96475.16;;;19.84;50.29
36598;BME280;22607;49.550;11.940;2023-05-16T11:22:12;96473.41;;;19.61;51.08
36598;BME280;22607;49.550;11.940;2023-05-16T11:24:51;96471.97;;;19.99;50.94
36598;BME280;22607;49.550;11.940;2023-05-16T11:27:44;96481.25;;;19.67;52.48
36598;BME280;22607;49.550;11.940;2023-05-16T11:32:41;96488.72;;;19.24;51.37
36598;BME280;22607;49.550;11.940;2023-05-16T11:35:10;96491.22;;;19.43;51.31
36598;BME280;22607;49.550;11.940;2023-05-16T11:37:41;96493.69;;;19.21;50.55
36598;BME280;22607;49.550;11.940;2023-05-16T11:40:10;96481.19;;;19.79;50.50
36598;BME280;22607;49.550;11.940;2023-05-16T11:42:38;96485.84;;;20.18;51.10
36598;BME280;22607;49.550;11.940;2023-05-16T11:45:16;96467.75;;;20.38;48.99
36598;BME280;22607;49.550;11.940;2023-05-16T11:47:44;96484.00;;;20.76;47.87
36598;BME280;22607;49.550;11.940;2023-05-16T11:50:16;96468.13;;;20.86;48.35
36598;BME280;22607;49.550;11.940;2023-05-16T11:52:49;96477.47;;;20.66;46.84
36598;BME280;22607;49.550;11.940;2023-05-16T11:55:21;96463.72;;;20.35;47.35
36598;BME280;22607;49.550;11.940;2023-05-16T11:58:06;96486.31;;;20.50;48.62
36598;BME280;22607;49.550;11.940;2023-05-16T12:00:33;96473.19;;;20.65;48.06
36598;BME280;22607;49.550;11.940;2023-05-16T12:03:02;96484.00;;;20.93;47.90
36598;BME280;22607;49.550;11.940;2023-05-16T12:05:30;96483.47;;;20.56;46.53
36598;BME280;22607;49.550;11.940;2023-05-16T12:07:58;96488.56;;;20.58;48.05
36598;BME280;22607;49.550;11.940;2023-05-16T12:10:25;96490.38;;;20.01;47.92
36598;BME280;22607;49.550;11.940;2023-05-16T12:12:53;96489.56;;;20.17;48.15
36598;BME280;22607;49.550;11.940;2023-05-16T12:15:20;96500.31;;;20.05;49.27
36598;BME280;22607;49.550;11.940;2023-05-16T12:17:47;96498.16;;;19.90;47.38
36598;BME280;22607;49.550;11.940;2023-05-16T12:20:14;96521.06;;;20.03;46.88
36598;BME280;22607;49.550;11.940;2023-05-16T12:22:43;96517.38;;;19.75;47.85
36598;BME280;22607;49.550;11.940;2023-05-16T12:25:28;96509.50;;;19.39;46.64
36598;BME280;22607;49.550;11.940;2023-05-16T12:28:00;96514.84;;;19.68;48.31
36598;BME280;22607;49.550;11.940;2023-05-16T12:30:28;96529.81;;;19.17;48.30
36598;BME280;22607;49.550;11.940;2023-05-16T12:32:56;96534.09;;;19.59;48.97
36598;BME280;22607;49.550;11.940;2023-05-16T12:35:32;96535.97;;;19.17;47.74
36598;BME280;22607;49.550;11.940;2023-05-16T12:38:02;96540.78;;;19.32;49.87
36598;BME280;22607;49.550;11.940;2023-05-16T12:40:30;96547.44;;;18.94;48.52
36598;BME280;22607;49.550;11.940;2023-05-16T12:42:57;96545.78;;;19.28;48.27
36598;BME280;22607;49.550;11.940;2023-05-16T12:45:25;96545.13;;;19.50;48.72
36598;BME280;22607;49.550;11.940;2023-05-16T12:47:52;96544.06;;;19.10;48.47
36598;BME280;22607;49.550;11.940;2023-05-16T12:50:19;96537.69;;;18.87;49.09
36598;BME280;22607;49.550;11.940;2023-05-16T12:52:50;96544.50;;;18.95;48.70
36598;BME280;22607;49.550;11.940;2023-05-16T12:55:17;96543.25;;;19.22;48.99
36598;BME280;22607;49.550;11.940;2023-05-16T12:57:46;96541.19;;;18.76;49.24
36598;BME280;22607;49.550;11.940;2023-05-16T13:00:14;96554.38;;;18.71;49.06
36598;BME280;22607;49.550;11.940;2023-05-16T13:02:41;96556.00;;;18.72;49.92
36598;BME280;22607;49.550;11.940;2023-05-16T13:05:08;96552.50;;;18.95;49.44
36598;BME280;22607;49.550;11.940;2023-05-16T13:07:36;96551.13;;;18.45;50.13
36598;BME280;22607;49.550;11.940;2023-05-16T13:10:08;96572.41;;;18.69;49.96
36598;BME280;22607;49.550;11.940;2023-05-16T13:12:36;96569.56;;;18.16;49.46
36598;BME280;22607;49.550;11.940;2023-05-16T13:15:05;96580.69;;;18.36;49.75
36598;BME280;22607;49.550;11.940;2023-05-16T13:17:38;96576.88;;;18.44;50.26